Yakutsk, Russia

12:17 PM +09 on February 28, 2017 (GMT +0900)
Yakutsk | | Change Station

Elev 338 ft 62.08 °N, 129.75 °E | Updated 17 minutes ago

Snow
Snow
-8 °F
Feels Like -24 °F
N
9
Wind Variable Wind from NW

Today
High -- | Low -- °F
--% Chance of Precip.
Yesterday
High -- | Low -- °F
Precip. -- in
Pressure 30.30 in
Visibility 6.2 miles
Clouds
Windchill -24 °F
Dew Point -13 °F
Humidity 77%
Rainfall 0.00 in
Snow Depth Not available.
7:27 AM 5:40 PM
Waxing Crescent, 3% visible
METAR UEEE 280300Z 31004MPS 9999 -SN NSC M22/M25 Q1026 R23L/490150 NOSIG RMK QFE760
Pressure 30.30 in
Visibility 6.2 miles
Clouds
Windchill -24 °F
Dew Point -13 °F
Humidity 77%
Rainfall 0.00 in
Snow Depth Not available.
7:27 AM 5:40 PM
Waxing Crescent, 3% visible
METAR UEEE 280300Z 31004MPS 9999 -SN NSC M22/M25 Q1026 R23L/490150 NOSIG RMK QFE760

Get Your Daily Forecast Email!

Thanks for signing up!

Be on the lookout for a verification email in your inbox.

You'll start receiving the daily forecast at 8 AM.

×

10-Day Weather Forecast

×

Almanac

Astronomy

Feb. 28, 2017 Rise Set
Actual Time
Civil Twilight
Nautical Twilight
Astronomical Twilight
Moon
Length of Visible Light
Length of Day
Tomorrow will be .
, % of the Moon is Illuminated

Today's Extremes

Country Highs Country Lows

Community

WunderPhotos

Upload Photos

1,962,540 photos uploaded!

WunderBlog® & News

Nearby

Air Quality

  Air Quality AQ Index Pollutant
Not available.

Snow Depth

Station Depth Elevation

Earthquake Activity

City Distance Mag. Time & Date
Minimum magnitude displayed is 2.5.

Coastal Water Temperatures

Place Temperature

Stations

Nearby Weather Stations

Station Location Temp. Windchill Dew Point Humidity Wind Precip. Elev Updated Type